createdAt,value
2022-08-12T00:00:48.972Z,6.90
2022-08-12T00:02:03.610Z,8.70
2022-08-12T00:02:49.997Z,6.30
2022-08-12T00:03:48.923Z,8.80
2022-08-12T00:04:49.925Z,9.30
2022-08-12T00:06:00.452Z,8.30
2022-08-12T00:06:49.932Z,7.00
2022-08-12T00:07:48.895Z,7.40
2022-08-12T00:08:48.883Z,3.70
2022-08-12T00:09:49.371Z,5.00
2022-08-12T00:10:48.870Z,4.60
2022-08-12T00:11:49.090Z,5.90
2022-08-12T00:12:49.084Z,6.20
2022-08-12T00:13:49.066Z,5.60
2022-08-12T00:14:49.097Z,5.60
2022-08-12T00:15:49.004Z,7.60
2022-08-12T00:16:49.112Z,8.30
2022-08-12T00:17:49.019Z,7.20
2022-08-12T00:18:49.024Z,7.00
2022-08-12T00:19:48.966Z,4.60
2022-08-12T00:20:49.035Z,9.10
2022-08-12T00:21:48.802Z,5.70
2022-08-12T00:22:58.804Z,9.50
2022-08-12T00:23:49.758Z,5.80
2022-08-12T00:24:48.771Z,9.20
2022-08-12T00:26:18.992Z,6.90
2022-08-12T00:26:49.757Z,8.00
2022-08-12T00:27:48.729Z,7.30
2022-08-12T00:28:48.715Z,8.10
2022-08-12T00:29:49.706Z,8.90
2022-08-12T00:30:48.699Z,8.80
2022-08-12T00:31:48.728Z,6.80
2022-08-12T00:32:54.919Z,6.00
2022-08-12T00:33:52.483Z,6.40
2022-08-12T00:34:49.485Z,6.10
2022-08-12T00:35:48.646Z,6.60
2022-08-12T00:36:50.151Z,4.10
2022-08-12T00:37:48.661Z,4.80
2022-08-12T00:38:48.642Z,7.50
2022-08-12T00:39:48.733Z,5.40
2022-08-12T00:40:48.603Z,5.20
2022-08-12T00:41:48.641Z,4.70
2022-08-12T00:42:48.591Z,4.00
2022-08-12T00:43:48.586Z,4.80
2022-08-12T00:44:48.586Z,4.80
2022-08-12T00:45:48.575Z,5.90
2022-08-12T00:47:25.024Z,6.90
2022-08-12T00:47:49.553Z,7.90
2022-08-12T00:48:48.548Z,8.30
2022-08-12T00:49:50.368Z,6.90
2022-08-12T00:50:48.531Z,8.80
2022-08-12T00:51:48.523Z,8.60
2022-08-12T00:52:48.540Z,7.40
2022-08-12T00:53:48.496Z,5.90
2022-08-12T00:54:48.493Z,8.40
2022-08-12T00:55:48.489Z,8.00
2022-08-12T00:56:48.466Z,7.00
2022-08-12T00:57:48.529Z,8.20
2022-08-12T00:58:48.458Z,8.90
2022-08-12T00:59:48.450Z,9.90
2022-08-12T01:00:48.454Z,5.70
2022-08-12T01:02:00.974Z,13.50
2022-08-12T01:02:49.457Z,10.30
2022-08-12T01:03:48.420Z,10.40
2022-08-12T01:04:48.403Z,11.30
2022-08-12T01:05:48.409Z,13.00
2022-08-12T01:06:50.918Z,8.30
2022-08-12T01:07:49.409Z,6.40
2022-08-12T01:08:48.365Z,7.10
2022-08-12T01:09:48.368Z,11.00
2022-08-12T01:10:48.357Z,8.40
2022-08-12T01:11:48.341Z,10.70
2022-08-12T01:12:48.359Z,8.80
2022-08-12T01:13:48.332Z,10.50
2022-08-12T01:14:48.322Z,10.70
2022-08-12T01:15:48.316Z,13.10
2022-08-12T01:16:48.302Z,10.10
2022-08-12T01:17:48.321Z,11.60
2022-08-12T01:18:48.287Z,13.40
2022-08-12T01:19:49.270Z,8.10
2022-08-12T01:20:48.276Z,7.00
2022-08-12T01:21:48.285Z,5.30
2022-08-12T01:22:48.279Z,5.80
2022-08-12T01:23:48.251Z,10.30
2022-08-12T01:24:48.252Z,10.00
2022-08-12T01:25:56.146Z,9.90
2022-08-12T01:26:49.222Z,10.00
2022-08-12T01:27:48.253Z,10.00
2022-08-12T01:28:48.206Z,9.90
2022-08-12T01:29:48.200Z,7.70
2022-08-12T01:30:48.195Z,7.60
2022-08-12T01:31:48.179Z,7.30
2022-08-12T01:32:48.543Z,9.00
2022-08-12T01:33:48.165Z,13.20
2022-08-12T01:34:48.155Z,11.90
2022-08-12T01:35:57.873Z,9.10
2022-08-12T01:36:49.134Z,8.50
2022-08-12T01:37:48.127Z,9.20
2022-08-12T01:38:48.154Z,15.70
2022-08-12T01:40:34.914Z,8.10
2022-08-12T01:40:49.222Z,11.70
2022-08-12T01:41:53.576Z,13.00
2022-08-12T01:42:49.088Z,12.30
2022-08-12T01:43:48.113Z,11.10
2022-08-12T01:44:48.075Z,8.80
2022-08-12T01:45:48.065Z,10.20
2022-08-12T01:46:48.141Z,10.30
2022-08-12T01:47:48.050Z,12.10
2022-08-12T01:48:48.062Z,9.80
2022-08-12T01:49:48.031Z,9.50
2022-08-12T01:50:48.021Z,13.90
2022-08-12T01:52:21.551Z,11.30
2022-08-12T01:52:49.000Z,13.40
2022-08-12T01:53:48.728Z,8.70
2022-08-12T01:54:47.989Z,12.00
2022-08-12T01:55:47.976Z,10.70
2022-08-12T01:56:47.963Z,8.90
2022-08-12T01:57:59.656Z,9.10
2022-08-12T01:58:48.987Z,8.50
2022-08-12T01:59:47.941Z,9.40
2022-08-12T02:00:54.960Z,9.70
2022-08-12T02:01:48.999Z,11.20
2022-08-12T02:02:47.920Z,7.10
2022-08-12T02:03:47.936Z,7.00
2022-08-12T02:04:47.896Z,8.30
2022-08-12T02:05:47.885Z,9.80
2022-08-12T02:06:47.884Z,8.10
2022-08-12T02:07:47.870Z,11.70
2022-08-12T02:08:47.897Z,8.70
2022-08-12T02:09:47.859Z,12.00
2022-08-12T02:10:49.958Z,7.30
2022-08-12T02:11:47.839Z,6.30
2022-08-12T02:12:47.870Z,6.10
2022-08-12T02:13:49.321Z,8.10
2022-08-12T02:14:47.818Z,5.30
2022-08-12T02:15:47.807Z,5.60
2022-08-12T02:16:47.801Z,5.30
2022-08-12T02:17:56.286Z,5.20
2022-08-12T02:18:48.811Z,5.60
2022-08-12T02:19:47.784Z,6.50
2022-08-12T02:20:52.462Z,5.10
2022-08-12T02:21:48.767Z,5.50
2022-08-12T02:22:47.769Z,5.60
2022-08-12T02:23:47.769Z,6.10
2022-08-12T02:24:47.729Z,7.00
2022-08-12T02:25:47.725Z,6.40
2022-08-12T02:26:47.717Z,6.90
2022-08-12T02:27:47.720Z,9.60
2022-08-12T02:28:47.724Z,6.80
2022-08-12T02:29:47.684Z,8.50
2022-08-12T02:30:47.675Z,11.50
2022-08-12T02:31:47.727Z,10.10
2022-08-12T02:32:47.694Z,7.60
2022-08-12T02:33:47.767Z,6.60
2022-08-12T02:34:47.656Z,16.00
2022-08-12T02:35:47.680Z,8.60
2022-08-12T02:36:47.648Z,4.80
2022-08-12T02:37:47.675Z,10.30
2022-08-12T02:38:47.644Z,8.20
2022-08-12T02:39:47.641Z,8.10
2022-08-12T02:40:47.585Z,11.40
2022-08-12T02:41:47.585Z,6.50
2022-08-12T02:42:47.638Z,7.50
2022-08-12T02:43:47.594Z,6.80
2022-08-12T02:44:47.571Z,3.90
2022-08-12T02:45:47.561Z,5.00
2022-08-12T02:46:47.540Z,3.20
2022-08-12T02:47:57.143Z,5.20
2022-08-12T02:48:48.550Z,3.20
2022-08-12T02:49:47.568Z,2.90
2022-08-12T02:50:47.528Z,2.20
2022-08-12T02:51:47.526Z,4.90
2022-08-12T02:52:47.490Z,8.20
2022-08-12T02:54:03.320Z,2.00
2022-08-12T02:54:48.505Z,7.90
2022-08-12T02:55:47.473Z,2.90
2022-08-12T02:56:50.770Z,1.80
2022-08-12T02:57:47.454Z,13.40
2022-08-12T02:58:47.479Z,7.60
2022-08-12T02:59:47.431Z,6.20
2022-08-12T03:00:47.530Z,10.60
2022-08-12T03:01:47.602Z,5.60
2022-08-12T03:02:47.402Z,5.90
2022-08-12T03:03:47.420Z,8.80
2022-08-12T03:04:47.393Z,5.70
2022-08-12T03:05:47.385Z,2.40
2022-08-12T03:06:47.390Z,0.90
2022-08-12T03:07:59.840Z,1.90
2022-08-12T03:08:51.832Z,4.30
2022-08-12T03:10:05.348Z,1.50
2022-08-12T03:10:48.411Z,8.50
2022-08-12T03:11:48.955Z,1.30
2022-08-12T03:12:49.318Z,2.10
2022-08-12T03:13:47.346Z,4.00
2022-08-12T03:14:47.317Z,2.70
2022-08-12T03:15:47.304Z,1.20
2022-08-12T03:16:47.284Z,2.30
2022-08-12T03:17:47.306Z,4.50
2022-08-12T03:18:48.325Z,0.80
2022-08-12T03:20:08.814Z,1.20
2022-08-12T03:20:48.257Z,2.40
2022-08-12T03:21:54.703Z,3.40
2022-08-12T03:22:48.260Z,3.60
2022-08-12T03:23:47.325Z,2.60
2022-08-12T03:24:47.225Z,1.10
2022-08-12T03:25:47.229Z,1.70
2022-08-12T03:26:47.204Z,5.80
2022-08-12T03:27:47.230Z,8.80
2022-08-12T03:28:47.320Z,1.70
2022-08-12T03:29:50.035Z,7.50
2022-08-12T03:30:47.177Z,1.00
2022-08-12T03:31:47.164Z,6.40
2022-08-12T03:32:47.406Z,7.80
2022-08-12T03:34:02.385Z,6.10
2022-08-12T03:34:48.182Z,6.00
2022-08-12T03:35:47.154Z,9.40
2022-08-12T03:36:47.167Z,9.70
2022-08-12T03:37:47.100Z,8.40
2022-08-12T03:38:47.190Z,8.20
2022-08-12T03:39:47.219Z,4.10
2022-08-12T03:40:47.111Z,5.40
2022-08-12T03:41:47.099Z,6.90
2022-08-12T03:42:47.088Z,4.50
2022-08-12T03:43:47.095Z,6.00
2022-08-12T03:44:47.135Z,5.00
2022-08-12T03:45:52.338Z,5.50
2022-08-12T03:46:48.055Z,5.10
2022-08-12T03:47:47.035Z,6.20
2022-08-12T03:48:47.032Z,2.90
2022-08-12T03:49:47.052Z,5.60
2022-08-12T03:50:47.057Z,2.90
2022-08-12T03:51:46.993Z,17.80
2022-08-12T03:52:46.979Z,9.80
2022-08-12T03:53:46.997Z,12.90
2022-08-12T03:54:47.053Z,8.00
2022-08-12T03:55:46.956Z,5.60
2022-08-12T03:56:46.938Z,5.30
2022-08-12T03:57:48.566Z,5.00
2022-08-12T03:58:46.925Z,4.10
2022-08-12T03:59:46.951Z,14.00
2022-08-12T04:00:47.010Z,4.30
2022-08-12T04:01:46.895Z,4.40
2022-08-12T04:02:47.896Z,9.40
2022-08-12T04:03:46.888Z,10.10
2022-08-12T04:04:46.910Z,6.10
2022-08-12T04:05:54.698Z,8.90
2022-08-12T04:06:47.863Z,8.90
2022-08-12T04:07:56.340Z,6.80
2022-08-12T04:08:47.847Z,5.00
2022-08-12T04:09:46.859Z,4.00
2022-08-12T04:10:46.832Z,4.90
2022-08-12T04:11:47.281Z,6.80
2022-08-12T04:12:46.813Z,5.10
2022-08-12T04:13:46.800Z,10.30
2022-08-12T04:14:46.823Z,8.20
2022-08-12T04:15:46.780Z,9.90
2022-08-12T04:16:46.776Z,7.10
2022-08-12T04:18:07.329Z,5.40
2022-08-12T04:18:47.760Z,6.90
2022-08-12T04:19:46.779Z,12.10
2022-08-12T04:20:46.740Z,7.50
2022-08-12T04:22:02.180Z,10.00
2022-08-12T04:22:47.716Z,8.60
2022-08-12T04:23:48.681Z,11.60
2022-08-12T04:24:50.530Z,10.10
2022-08-12T04:25:46.701Z,11.50
2022-08-12T04:26:46.689Z,7.90
2022-08-12T04:27:46.690Z,9.60
2022-08-12T04:28:46.685Z,9.40
2022-08-12T04:30:21.193Z,6.60
2022-08-12T04:30:47.656Z,8.10
2022-08-12T04:31:46.654Z,5.70
2022-08-12T04:32:46.813Z,6.00
2022-08-12T04:33:47.634Z,9.20
2022-08-12T04:34:46.648Z,9.00
2022-08-12T04:35:46.619Z,12.50
2022-08-12T04:36:46.611Z,10.10
2022-08-12T04:37:58.094Z,17.10
2022-08-12T04:38:47.582Z,9.90
2022-08-12T04:39:46.665Z,8.90
2022-08-12T04:40:46.573Z,9.40
2022-08-12T04:41:56.067Z,10.40
2022-08-12T04:42:47.554Z,8.60
2022-08-12T04:44:00.206Z,7.30
2022-08-12T04:44:47.594Z,8.40
2022-08-12T04:45:46.531Z,10.80
2022-08-12T04:46:46.514Z,5.40
2022-08-12T04:47:46.516Z,8.60
2022-08-12T04:48:46.514Z,4.30
2022-08-12T04:49:46.530Z,5.70
2022-08-12T04:50:46.491Z,6.70
2022-08-12T04:51:57.597Z,5.10
2022-08-12T04:52:47.467Z,7.30
2022-08-12T04:53:46.463Z,8.70
2022-08-12T04:54:46.486Z,7.20
2022-08-12T04:55:46.459Z,7.80
2022-08-12T04:57:04.887Z,7.60
2022-08-12T04:57:47.440Z,7.70
2022-08-12T04:58:50.628Z,7.00
2022-08-12T04:59:49.051Z,5.80
2022-08-12T05:00:46.423Z,7.40
2022-08-12T05:01:46.393Z,6.00
2022-08-12T05:02:46.460Z,7.60
2022-08-12T05:03:48.348Z,5.80
2022-08-12T05:04:46.427Z,7.50
2022-08-12T05:05:46.380Z,6.60
2022-08-12T05:06:46.366Z,8.30
2022-08-12T05:07:53.845Z,6.20
2022-08-12T05:08:47.332Z,7.50
2022-08-12T05:10:00.204Z,5.40
2022-08-12T05:10:47.337Z,6.90
2022-08-12T05:11:53.727Z,7.10
2022-08-12T05:12:47.383Z,6.50
2022-08-12T05:13:46.305Z,9.10
2022-08-12T05:14:46.337Z,6.10
2022-08-12T05:16:05.178Z,6.00
2022-08-12T05:16:48.278Z,7.10
2022-08-12T05:17:46.263Z,10.10
2022-08-12T05:18:46.253Z,9.90
2022-08-12T05:19:46.271Z,7.70
2022-08-12T05:20:46.234Z,8.60
2022-08-12T05:21:46.239Z,9.60
2022-08-12T05:22:46.220Z,9.40
2022-08-12T05:23:46.222Z,7.60
2022-08-12T05:24:46.234Z,7.50
2022-08-12T05:25:46.195Z,8.30
2022-08-12T05:26:46.185Z,6.40
2022-08-12T05:27:55.505Z,9.30
2022-08-12T05:28:47.165Z,10.60
2022-08-12T05:30:07.198Z,8.40
2022-08-12T05:30:47.149Z,7.40
2022-08-12T05:31:48.381Z,8.30
2022-08-12T05:32:46.137Z,8.00
2022-08-12T05:33:46.127Z,8.30
2022-08-12T05:34:46.152Z,9.00
2022-08-12T05:35:46.115Z,6.40
2022-08-12T05:36:46.106Z,9.50
2022-08-12T05:37:46.099Z,8.00
2022-08-12T05:38:46.097Z,7.90
2022-08-12T05:39:46.130Z,8.40
2022-08-12T05:40:46.068Z,8.50
2022-08-12T05:41:46.056Z,7.60
2022-08-12T05:42:46.399Z,9.60
2022-08-12T05:43:46.050Z,11.10
2022-08-12T05:44:46.067Z,6.80
2022-08-12T05:45:46.023Z,6.50
2022-08-12T05:46:46.020Z,7.90
2022-08-12T05:47:53.599Z,7.10
2022-08-12T05:48:46.999Z,12.00
2022-08-12T05:49:46.025Z,11.50
2022-08-12T05:50:45.986Z,6.50
2022-08-12T05:51:45.973Z,11.00
2022-08-12T05:52:45.964Z,8.10
2022-08-12T05:53:45.958Z,10.80
2022-08-12T05:54:56.968Z,7.80
2022-08-12T05:55:47.944Z,7.00
2022-08-12T05:56:45.933Z,7.80
2022-08-12T05:57:45.958Z,6.00
2022-08-12T05:58:45.930Z,8.70
2022-08-12T05:59:45.913Z,7.50
2022-08-12T06:00:45.940Z,7.00
2022-08-12T06:02:11.291Z,5.70
2022-08-12T06:02:46.955Z,11.30
2022-08-12T06:03:45.879Z,7.50
2022-08-12T06:04:45.881Z,6.20
2022-08-12T06:05:55.022Z,6.70
2022-08-12T06:06:46.848Z,10.60
2022-08-12T06:08:00.549Z,7.20
2022-08-12T06:08:46.833Z,8.40
2022-08-12T06:09:45.832Z,7.10
2022-08-12T06:10:45.842Z,7.80
2022-08-12T06:12:04.739Z,6.80
2022-08-12T06:12:46.790Z,8.60
2022-08-12T06:13:53.213Z,7.10
2022-08-12T06:14:46.787Z,10.20
2022-08-12T06:15:45.804Z,9.40
2022-08-12T06:16:45.771Z,8.20
2022-08-12T06:17:45.849Z,5.30
2022-08-12T06:18:45.745Z,9.00
2022-08-12T06:20:27.306Z,5.80
2022-08-12T06:20:46.775Z,8.00
2022-08-12T06:21:45.717Z,7.40
2022-08-12T06:22:45.708Z,7.90
2022-08-12T06:23:45.700Z,10.40
2022-08-12T06:24:45.704Z,8.20
2022-08-12T06:25:45.723Z,6.20
2022-08-12T06:26:45.682Z,8.40
2022-08-12T06:28:06.723Z,7.10
2022-08-12T06:28:46.659Z,7.00
2022-08-12T06:30:09.585Z,11.10
2022-08-12T06:31:08.189Z,10.30
2022-08-12T06:31:47.654Z,9.50
2022-08-12T06:33:04.354Z,11.30
2022-08-12T06:33:55.333Z,7.80
2022-08-12T06:35:25.358Z,5.10
2022-08-12T06:35:49.301Z,11.00
2022-08-12T06:36:45.598Z,6.20
2022-08-12T06:37:45.589Z,6.40
2022-08-12T06:38:46.577Z,8.90
2022-08-12T06:39:45.648Z,8.80
2022-08-12T06:40:45.597Z,6.90
2022-08-12T06:42:05.204Z,7.20
2022-08-12T06:42:46.940Z,8.00
2022-08-12T06:44:05.889Z,9.40
2022-08-12T06:44:46.537Z,7.80
2022-08-12T06:45:46.812Z,6.80
2022-08-12T06:46:45.514Z,9.20
2022-08-12T06:47:45.509Z,10.80
2022-08-12T06:48:45.497Z,6.10
2022-08-12T06:49:45.496Z,7.10
2022-08-12T06:50:45.778Z,7.60
2022-08-12T06:51:56.661Z,9.00
2022-08-12T06:52:46.584Z,8.20
2022-08-12T06:53:45.681Z,6.30
2022-08-12T06:54:45.457Z,8.60
2022-08-12T06:55:58.294Z,8.00
2022-08-12T06:57:03.454Z,7.70
2022-08-12T06:58:08.248Z,6.90
2022-08-12T06:58:46.417Z,10.90
2022-08-12T06:59:45.418Z,7.90
2022-08-12T07:00:45.461Z,7.70
2022-08-12T07:01:51.097Z,9.30
2022-08-12T07:02:46.380Z,7.50
2022-08-12T07:03:45.382Z,9.30
2022-08-12T07:04:45.380Z,10.60
2022-08-12T07:05:45.364Z,17.80
2022-08-12T07:06:45.389Z,9.50
2022-08-12T07:07:45.341Z,8.40
2022-08-12T07:08:45.350Z,9.00
2022-08-12T07:10:06.705Z,8.30
2022-08-12T07:10:46.327Z,9.50
2022-08-12T07:11:47.283Z,7.10
2022-08-12T07:12:46.325Z,10.90
2022-08-12T07:14:12.457Z,9.80
2022-08-12T07:14:48.925Z,8.80
2022-08-12T07:15:46.284Z,6.40
2022-08-12T07:16:45.301Z,4.50
2022-08-12T07:17:45.271Z,8.10
2022-08-12T07:18:45.264Z,8.20
2022-08-12T07:19:45.617Z,7.80
2022-08-12T07:20:53.345Z,9.60
2022-08-12T07:21:59.981Z,8.00
2022-08-12T07:22:46.229Z,7.40
2022-08-12T07:23:45.220Z,6.20
2022-08-12T07:24:45.212Z,9.60
2022-08-12T07:25:45.217Z,7.30
2022-08-12T07:26:45.217Z,7.90
2022-08-12T07:27:45.233Z,9.80
2022-08-12T07:28:45.174Z,6.00
2022-08-12T07:30:03.862Z,5.80
2022-08-12T07:30:46.158Z,8.60
2022-08-12T07:31:45.201Z,6.80
2022-08-12T07:32:45.149Z,6.40
2022-08-12T07:33:45.136Z,4.50
2022-08-12T07:34:45.141Z,9.10
2022-08-12T07:35:45.106Z,6.20
2022-08-12T07:36:45.138Z,6.60
2022-08-12T07:37:45.106Z,5.20
2022-08-12T07:38:45.093Z,2.90
2022-08-12T07:39:50.719Z,4.10
2022-08-12T07:40:46.078Z,6.00
2022-08-12T07:41:45.101Z,5.20
2022-08-12T07:42:45.061Z,3.90
2022-08-12T07:43:45.055Z,7.10
2022-08-12T07:44:45.042Z,2.70
2022-08-12T07:45:45.043Z,2.60
2022-08-12T07:46:45.064Z,6.00
2022-08-12T07:47:45.024Z,4.50
2022-08-12T07:48:45.017Z,3.60
2022-08-12T07:50:04.558Z,9.30
2022-08-12T07:50:46.000Z,4.90
2022-08-12T07:51:45.027Z,2.60
2022-08-12T07:52:44.981Z,3.90
2022-08-12T07:54:00.203Z,7.80
2022-08-12T07:54:45.985Z,2.70
2022-08-12T07:55:44.954Z,7.10
2022-08-12T07:56:44.985Z,7.30
2022-08-12T07:57:44.947Z,3.90
2022-08-12T07:58:47.154Z,6.40
2022-08-12T07:59:45.938Z,7.50
2022-08-12T08:00:44.918Z,5.70
2022-08-12T08:01:45.004Z,3.20
2022-08-12T08:02:44.910Z,5.10
2022-08-12T08:03:47.551Z,3.80
2022-08-12T08:04:44.904Z,3.70
2022-08-12T08:05:44.894Z,3.40
2022-08-12T08:06:44.907Z,6.40
2022-08-12T08:07:44.869Z,4.80
2022-08-12T08:08:44.872Z,4.50
2022-08-12T08:09:44.858Z,3.70
2022-08-12T08:10:44.861Z,3.10
2022-08-12T08:11:44.882Z,5.40
2022-08-12T08:12:44.845Z,3.50
2022-08-12T08:13:44.828Z,4.30
2022-08-12T08:14:44.822Z,3.10
2022-08-12T08:16:02.412Z,3.50
2022-08-12T08:16:46.852Z,6.80
2022-08-12T08:17:44.802Z,4.70
2022-08-12T08:18:44.809Z,3.20
2022-08-12T08:20:03.586Z,5.20
2022-08-12T08:20:45.788Z,3.90
2022-08-12T08:21:44.813Z,3.30
2022-08-12T08:22:44.864Z,3.50
2022-08-12T08:23:46.165Z,3.50
2022-08-12T08:24:44.755Z,2.70
2022-08-12T08:25:44.746Z,2.30
2022-08-12T08:26:44.757Z,2.70
2022-08-12T08:27:44.776Z,7.30
2022-08-12T08:28:44.726Z,5.00
2022-08-12T08:29:44.725Z,5.40
2022-08-12T08:30:44.737Z,4.50
2022-08-12T08:31:45.552Z,3.30
2022-08-12T08:32:45.720Z,3.80
2022-08-12T08:34:05.227Z,2.60
2022-08-12T08:34:54.228Z,7.30
2022-08-12T08:35:47.769Z,4.80
2022-08-12T08:36:44.722Z,5.40
2022-08-12T08:37:44.687Z,3.00
2022-08-12T08:38:44.648Z,5.80
2022-08-12T08:39:45.652Z,6.00
2022-08-12T08:40:44.634Z,3.50
2022-08-12T08:42:19.111Z,4.80
2022-08-12T08:42:50.806Z,3.70
2022-08-12T08:43:46.662Z,3.80
2022-08-12T08:44:44.615Z,3.80
2022-08-12T08:45:44.607Z,4.60
2022-08-12T08:46:44.708Z,4.20
2022-08-12T08:47:44.626Z,3.70
2022-08-12T08:48:44.584Z,2.40
2022-08-12T08:49:44.574Z,3.40
2022-08-12T08:50:44.574Z,2.30
2022-08-12T08:51:44.580Z,2.10
2022-08-12T08:52:44.587Z,5.10
2022-08-12T08:53:44.585Z,3.50
2022-08-12T08:54:45.540Z,6.10
2022-08-12T08:56:04.131Z,7.70
2022-08-12T08:56:46.621Z,7.90
2022-08-12T08:57:44.860Z,4.70
2022-08-12T08:58:45.507Z,3.70
2022-08-12T08:59:45.507Z,4.70
2022-08-12T09:00:49.434Z,5.60
2022-08-12T09:01:44.765Z,4.90
2022-08-12T09:02:49.196Z,5.40
2022-08-12T09:05:07.306Z,5.60
2022-08-12T09:05:13.906Z,5.30
2022-08-12T09:06:02.650Z,3.20
2022-08-12T09:06:53.819Z,3.00
2022-08-12T09:07:58.946Z,3.80
2022-08-12T09:08:46.472Z,4.30
2022-08-12T09:10:02.762Z,3.50
2022-08-12T09:10:45.830Z,6.10
2022-08-12T09:12:10.603Z,4.80
2022-08-12T09:12:45.415Z,5.70
2022-08-12T09:14:12.558Z,4.30
2022-08-12T09:16:45.412Z,5.20
2022-08-12T09:17:44.381Z,5.20
2022-08-12T09:18:44.399Z,6.60
2022-08-12T09:19:44.363Z,4.30
2022-08-12T09:20:44.365Z,4.40
2022-08-12T09:21:54.600Z,4.20
2022-08-12T09:22:49.063Z,5.70
2022-08-12T09:23:57.243Z,4.40
2022-08-12T09:24:45.327Z,5.50
2022-08-12T09:25:44.332Z,6.30
2022-08-12T09:30:10.971Z,3.10
2022-08-12T09:30:45.296Z,3.20
2022-08-12T09:32:07.856Z,5.40
2022-08-12T09:33:01.498Z,4.00
2022-08-12T09:34:25.212Z,2.20
2022-08-12T09:34:50.818Z,5.20
2022-08-12T09:35:46.218Z,4.30
2022-08-12T09:37:00.742Z,3.20
2022-08-12T09:37:58.241Z,3.40
2022-08-12T09:39:00.012Z,3.60
2022-08-12T09:40:01.828Z,3.70
2022-08-12T09:40:57.090Z,2.30
2022-08-12T09:42:08.449Z,3.50
2022-08-12T09:43:04.816Z,4.90
2022-08-12T09:43:53.339Z,3.00
2022-08-12T09:44:45.230Z,4.00
2022-08-12T09:46:06.559Z,3.20
2022-08-12T09:46:45.328Z,4.30
2022-08-12T09:47:45.177Z,4.30
2022-08-12T09:48:56.470Z,4.10
2022-08-12T09:49:45.153Z,2.50
2022-08-12T09:50:50.640Z,4.80
2022-08-12T09:51:45.157Z,3.10
2022-08-12T09:52:44.325Z,4.50
2022-08-12T09:53:44.185Z,3.30
2022-08-12T09:54:44.130Z,5.20
2022-08-12T09:56:56.914Z,5.90
2022-08-12T09:57:01.894Z,3.30
2022-08-12T09:58:46.234Z,3.20
2022-08-12T09:59:00.961Z,3.40
2022-08-12T10:00:15.014Z,2.60
2022-08-12T10:00:52.030Z,3.00
2022-08-12T10:02:43.021Z,3.30
2022-08-12T10:02:50.071Z,3.90
2022-08-12T10:04:02.968Z,5.50
2022-08-12T10:04:51.587Z,6.80
2022-08-12T10:06:19.886Z,3.80
2022-08-12T10:06:54.201Z,4.60
2022-08-12T10:07:45.022Z,5.00
2022-08-12T10:08:44.017Z,3.00
2022-08-12T10:09:58.432Z,2.40
2022-08-12T10:10:45.028Z,2.70
2022-08-12T10:12:10.148Z,4.40
2022-08-12T10:13:06.663Z,4.40
2022-08-12T10:13:45.016Z,4.20
2022-08-12T10:14:49.986Z,3.30
2022-08-12T10:16:02.773Z,2.40
2022-08-12T10:16:44.983Z,3.60
2022-08-12T10:18:05.948Z,3.30
2022-08-12T10:18:51.226Z,1.90
2022-08-12T10:19:51.618Z,4.40
2022-08-12T10:20:44.944Z,3.40
2022-08-12T10:21:43.921Z,3.70
2022-08-12T10:22:43.931Z,4.20
2022-08-12T10:23:45.933Z,5.60
2022-08-12T10:24:43.947Z,2.40
2022-08-12T10:26:34.686Z,1.80
2022-08-12T10:26:45.027Z,3.20
2022-08-12T10:28:03.636Z,4.80
2022-08-12T10:29:01.804Z,6.70
2022-08-12T10:30:03.908Z,2.20
2022-08-12T10:30:58.099Z,4.50
2022-08-12T10:32:19.458Z,5.20
2022-08-12T10:32:56.179Z,4.90
2022-08-12T10:34:04.903Z,4.40
2022-08-12T10:34:53.128Z,1.20
2022-08-12T10:35:44.814Z,4.10
2022-08-12T10:36:43.805Z,2.50
2022-08-12T10:38:37.134Z,5.20
2022-08-12T10:38:44.803Z,7.40
2022-08-12T10:40:00.801Z,4.50
2022-08-12T10:40:44.830Z,4.70
2022-08-12T10:41:58.310Z,2.50
2022-08-12T10:42:44.924Z,4.70
2022-08-12T10:43:55.922Z,4.20
2022-08-12T10:44:44.770Z,3.80
2022-08-12T10:45:43.761Z,2.90
2022-08-12T10:46:43.744Z,4.00
2022-08-12T10:48:07.795Z,1.50
2022-08-12T10:48:44.764Z,3.60
2022-08-12T10:50:02.381Z,4.10
2022-08-12T10:51:00.347Z,5.90
2022-08-12T10:52:03.180Z,6.70
2022-08-12T10:52:45.094Z,2.90
2022-08-12T10:53:46.316Z,2.00
2022-08-12T10:54:43.691Z,4.20
2022-08-12T10:55:44.696Z,5.00
2022-08-12T10:56:43.673Z,4.70
2022-08-12T10:58:13.423Z,4.40
2022-08-12T10:58:46.327Z,1.30
2022-08-12T11:00:30.697Z,4.70
2022-08-12T11:00:55.039Z,2.30
2022-08-12T11:04:17.079Z,5.40
2022-08-12T11:04:19.204Z,2.00
2022-08-12T11:04:25.226Z,3.80
2022-08-12T11:04:49.086Z,2.80
2022-08-12T11:07:05.820Z,3.30
2022-08-12T11:07:07.544Z,3.90
2022-08-12T11:08:37.583Z,1.80
2022-08-12T11:08:46.492Z,4.00
2022-08-12T11:10:00.134Z,1.50
2022-08-12T11:10:45.765Z,6.60
2022-08-12T11:12:35.370Z,3.10
2022-08-12T11:12:58.496Z,2.30
2022-08-12T11:13:48.324Z,2.70
2022-08-12T11:14:49.438Z,1.20
2022-08-12T11:16:19.419Z,2.40
2022-08-12T11:17:06.504Z,5.50
2022-08-12T11:17:53.712Z,2.10
2022-08-12T11:18:44.502Z,3.50
2022-08-12T11:19:43.534Z,2.80
2022-08-12T11:20:43.501Z,2.90
2022-08-12T11:21:57.794Z,4.60
2022-08-12T11:22:57.759Z,1.20
2022-08-12T11:23:44.469Z,4.00
2022-08-12T11:24:51.685Z,4.00
2022-08-12T11:25:57.972Z,6.30
2022-08-12T11:26:44.476Z,1.70
2022-08-12T11:27:43.706Z,2.70
2022-08-12T11:28:43.455Z,3.60
2022-08-12T11:30:02.046Z,1.70
2022-08-12T11:30:44.432Z,2.10
2022-08-12T11:32:01.970Z,9.40
2022-08-12T11:32:44.413Z,2.90
2022-08-12T11:34:05.475Z,3.20
2022-08-12T11:34:53.194Z,4.80
2022-08-12T11:35:44.395Z,6.20
2022-08-12T11:36:44.354Z,4.20
2022-08-12T11:37:55.875Z,7.50
2022-08-12T11:38:50.570Z,2.90
2022-08-12T11:40:44.322Z,2.30
2022-08-12T11:41:43.321Z,3.30
2022-08-12T11:42:46.943Z,3.40
2022-08-12T11:43:50.641Z,3.70
2022-08-12T11:44:44.514Z,6.00
2022-08-12T11:45:46.910Z,3.60
2022-08-12T11:46:43.291Z,3.60
2022-08-12T11:47:43.289Z,6.70
2022-08-12T11:48:52.387Z,4.40
2022-08-12T11:49:45.756Z,7.90
2022-08-12T11:50:44.336Z,3.60
2022-08-12T11:51:43.281Z,2.60
2022-08-12T11:52:56.848Z,4.30
2022-08-12T11:53:57.284Z,4.30
2022-08-12T11:54:51.142Z,5.20
2022-08-12T11:55:46.675Z,5.00
2022-08-12T11:56:59.042Z,3.00
2022-08-12T11:58:07.242Z,3.40
2022-08-12T12:01:59.150Z,5.10
2022-08-12T12:02:01.176Z,2.80
2022-08-12T12:02:44.254Z,4.80
2022-08-12T12:03:46.505Z,3.40
2022-08-12T12:04:43.211Z,3.40
2022-08-12T12:05:45.815Z,3.30
2022-08-12T12:06:43.161Z,8.00
2022-08-12T12:08:37.755Z,5.50
2022-08-12T12:08:49.780Z,3.60
2022-08-12T12:09:52.406Z,8.00
2022-08-12T12:10:44.138Z,4.60
2022-08-12T12:11:48.844Z,4.00
2022-08-12T12:12:49.809Z,4.10
2022-08-12T12:14:06.518Z,9.30
2022-08-12T12:14:44.129Z,4.10
2022-08-12T12:15:44.103Z,9.30
2022-08-12T12:16:48.303Z,3.80
2022-08-12T12:17:44.087Z,5.50
2022-08-12T12:18:43.080Z,5.00
2022-08-12T12:19:46.195Z,1.90
2022-08-12T12:20:43.068Z,5.30
2022-08-12T12:21:47.258Z,3.80
2022-08-12T12:22:44.117Z,4.40
2022-08-12T12:23:47.057Z,5.80
2022-08-12T12:24:43.074Z,5.90
2022-08-12T12:25:59.574Z,4.40
2022-08-12T12:26:44.023Z,3.60
2022-08-12T12:28:04.477Z,5.00
2022-08-12T12:28:54.422Z,6.90
2022-08-12T12:30:13.718Z,4.40
2022-08-12T12:30:54.689Z,5.70
2022-08-12T12:32:09.411Z,5.10
2022-08-12T12:32:53.305Z,2.90
2022-08-12T12:33:57.515Z,2.40
2022-08-12T12:35:13.467Z,8.30
2022-08-12T12:36:18.385Z,4.90
2022-08-12T12:36:43.959Z,6.20
2022-08-12T12:38:03.443Z,4.80
2022-08-12T12:38:44.936Z,5.40
2022-08-12T12:39:54.997Z,2.40
2022-08-12T12:40:44.175Z,7.50
2022-08-12T12:42:44.373Z,1.90
2022-08-12T12:42:57.941Z,3.30
2022-08-12T12:44:04.127Z,6.20
2022-08-12T12:44:53.542Z,3.90
2022-08-12T12:45:44.293Z,4.00
2022-08-12T12:46:44.644Z,2.60
2022-08-12T12:47:42.904Z,1.60
2022-08-12T12:48:44.762Z,2.80
2022-08-12T12:49:43.896Z,5.00
2022-08-12T12:50:45.726Z,4.00
2022-08-12T12:51:56.383Z,3.40
2022-08-12T12:52:43.849Z,2.40
2022-08-12T12:54:08.747Z,3.60
2022-08-12T12:54:43.864Z,2.40
2022-08-12T12:55:42.822Z,2.20
2022-08-12T12:56:43.164Z,4.90
2022-08-12T12:58:00.612Z,3.10
2022-08-12T12:58:43.937Z,3.10
2022-08-12T12:59:56.823Z,4.30
2022-08-12T13:00:51.097Z,0.80
2022-08-12T13:01:43.838Z,1.90
2022-08-12T13:02:43.103Z,6.20
2022-08-12T13:03:48.754Z,6.10
2022-08-12T13:04:43.791Z,2.50
2022-08-12T13:05:42.958Z,2.20
2022-08-12T13:06:42.748Z,1.20
2022-08-12T13:07:49.339Z,2.20
2022-08-12T13:08:43.736Z,1.80
2022-08-12T13:09:46.745Z,5.30
2022-08-12T13:10:50.392Z,3.00
2022-08-12T13:11:44.727Z,3.90
2022-08-12T13:12:42.727Z,5.00
2022-08-12T13:14:07.605Z,2.10
2022-08-12T13:14:43.723Z,2.40
2022-08-12T13:15:45.237Z,3.80
2022-08-12T13:16:43.881Z,3.20
2022-08-12T13:18:01.990Z,3.60
2022-08-12T13:18:43.664Z,2.30
2022-08-12T13:19:47.000Z,2.10
2022-08-12T13:20:43.641Z,3.10
2022-08-12T13:21:42.864Z,2.80
2022-08-12T13:22:42.631Z,1.80
2022-08-12T13:23:44.854Z,3.00